Time;durP1;ratioP1;P1;durP2;ratioP2;P2;SDS_P1;SDS_P2;PMS_P1;PMS_P2;Temp;Humidity;BMP_temperature;BMP_pressure;BME280_temperature;BME280_humidity;BME280_pressure;Samples;Min_cycle;Max_cycle;Signal;HPM_P1;HPM_P2
2022/10/24 00:01:29;;;;;;;4.07;2.00;;;;;;;;;;5047244;28;20579;-70
2022/10/24 00:03:54;;;;;;;4.65;1.92;;;;;;;;;;5038416;28;20402;-69
2022/10/24 00:06:20;;;;;;;7.50;2.03;;;;;;;;;;5035932;28;20037;-70
2022/10/24 00:08:46;;;;;;;5.35;1.90;;;;;;;;;;5025619;28;20037;-70
2022/10/24 00:11:16;;;;;;;6.15;2.10;;;;;;;;;;5026668;28;20479;-68
2022/10/24 00:13:42;;;;;;;5.00;1.85;;;;;;;;;;5035985;28;20124;-70
2022/10/24 00:16:07;;;;;;;4.70;1.83;;;;;;;;;;5046383;28;20487;-70
2022/10/24 00:18:33;;;;;;;3.78;1.55;;;;;;;;;;5046556;28;20123;-70
2022/10/24 00:20:59;;;;;;;3.40;1.98;;;;;;;;;;5046382;28;20040;-70
2022/10/24 00:23:24;;;;;;;3.97;1.50;;;;;;;;;;5046721;28;20045;-70
2022/10/24 00:25:49;;;;;;;5.45;2.38;;;;;;;;;;5038848;28;20036;-70
2022/10/24 00:28:15;;;;;;;4.95;1.67;;;;;;;;;;5046331;28;20036;-70
2022/10/24 00:30:40;;;;;;;5.72;1.70;;;;;;;;;;5045816;28;20033;-69
2022/10/24 00:33:05;;;;;;;3.90;1.55;;;;;;;;;;5046496;28;20025;-70
2022/10/24 00:35:32;;;;;;;4.20;1.60;;;;;;;;;;5032035;28;20041;-70
2022/10/24 00:37:58;;;;;;;6.97;1.67;;;;;;;;;;5030489;28;20049;-70
2022/10/24 00:40:23;;;;;;;3.08;1.40;;;;;;;;;;5046563;28;20040;-70
2022/10/24 00:42:48;;;;;;;10.45;1.60;;;;;;;;;;5037237;28;20384;-69
2022/10/24 00:45:38;;;;;;;1.83;1.20;;;;;;;;;;5047238;28;20053;-70
2022/10/24 00:48:15;;;;;;;3.55;1.50;;;;;;;;;;5048607;28;20037;-70
2022/10/24 00:50:41;;;;;;;2.45;1.00;;;;;;;;;;5048217;28;20036;-70
2022/10/24 00:53:07;;;;;;;5.18;1.35;;;;;;;;;;5049594;28;20087;-70
2022/10/24 00:55:33;;;;;;;3.03;1.50;;;;;;;;;;5050202;28;20031;-70
2022/10/24 00:58:00;;;;;;;2.78;1.38;;;;;;;;;;5048428;28;20633;-70
2022/10/24 01:00:30;;;;;;;1.55;1.20;;;;;;;;;;5050428;28;20490;-70
2022/10/24 01:02:56;;;;;;;12.20;1.42;;;;;;;;;;5049697;28;20033;-70
2022/10/24 01:05:25;;;;;;;5.18;1.23;;;;;;;;;;5050464;28;20044;-70
2022/10/24 01:08:24;;;;;;;5.35;1.60;;;;;;;;;;5049700;28;20056;-70
2022/10/24 01:11:07;;;;;;;5.88;1.23;;;;;;;;;;5049595;28;20045;-70
2022/10/24 01:13:50;;;;;;;3.08;1.10;;;;;;;;;;5041545;28;20124;-70
2022/10/24 01:16:32;;;;;;;4.18;1.15;;;;;;;;;;5070195;28;20025;-70
2022/10/24 01:19:30;;;;;;;3.78;1.10;;;;;;;;;;5068023;28;20059;-69
2022/10/24 01:22:02;;;;;;;3.28;1.17;;;;;;;;;;5068639;28;20120;-70
2022/10/24 01:24:49;;;;;;;2.10;1.30;;;;;;;;;;5069885;28;20024;-70
2022/10/24 01:27:39;;;;;;;3.25;1.00;;;;;;;;;;5067838;28;20099;-70
2022/10/24 01:30:04;;;;;;;3.60;1.30;;;;;;;;;;5069170;28;20059;-70
2022/10/24 01:32:36;;;;;;;2.13;1.20;;;;;;;;;;5069424;28;20158;-70
2022/10/24 01:35:10;;;;;;;4.13;1.00;;;;;;;;;;5043327;28;20041;-69
2022/10/24 01:38:09;;;;;;;3.58;1.55;;;;;;;;;;5040462;28;20037;-70
2022/10/24 01:40:49;;;;;;;4.22;1.25;;;;;;;;;;5048954;28;20410;-70
2022/10/24 01:43:18;;;;;;;6.28;1.73;;;;;;;;;;5048986;28;20118;-69
2022/10/24 01:45:48;;;;;;;4.97;1.40;;;;;;;;;;5048832;28;20495;-70
2022/10/24 01:48:18;;;;;;;3.67;1.77;;;;;;;;;;5049890;28;20402;-70
2022/10/24 01:50:46;;;;;;;4.00;1.00;;;;;;;;;;5048698;28;20052;-70
2022/10/24 01:53:13;;;;;;;4.10;1.40;;;;;;;;;;5040079;28;20151;-70
2022/10/24 01:55:39;;;;;;;4.38;1.55;;;;;;;;;;5037954;28;20033;-70
2022/10/24 01:58:06;;;;;;;3.90;1.20;;;;;;;;;;5029390;28;20039;-70
2022/10/24 02:00:31;;;;;;;4.78;1.40;;;;;;;;;;5029578;28;20025;-70
2022/10/24 02:03:02;;;;;;;10.20;1.48;;;;;;;;;;5028889;28;20505;-70
2022/10/24 02:05:45;;;;;;;3.13;1.20;;;;;;;;;;5037661;28;20068;-69
2022/10/24 02:08:17;;;;;;;2.17;1.10;;;;;;;;;;5042621;28;20045;-70
2022/10/24 02:10:49;;;;;;;4.35;1.20;;;;;;;;;;5049095;28;20033;-70
2022/10/24 02:13:26;;;;;;;2.30;1.10;;;;;;;;;;5048447;28;20110;-70
2022/10/24 02:15:56;;;;;;;3.55;1.20;;;;;;;;;;5048507;28;20029;-70
2022/10/24 02:18:21;;;;;;;4.25;1.40;;;;;;;;;;5047463;28;20503;-70
2022/10/24 02:21:06;;;;;;;4.78;1.27;;;;;;;;;;5044611;28;20052;-70
2022/10/24 02:23:44;;;;;;;4.20;1.30;;;;;;;;;;5027615;28;20052;-70
2022/10/24 02:26:42;;;;;;;5.38;1.23;;;;;;;;;;5027682;28;20513;-70
2022/10/24 02:29:17;;;;;;;3.15;1.30;;;;;;;;;;5023637;28;20033;-70
2022/10/24 02:31:49;;;;;;;4.57;1.40;;;;;;;;;;5035773;28;20061;-70
2022/10/24 02:34:17;;;;;;;5.07;1.00;;;;;;;;;;5026710;28;20029;-70
2022/10/24 02:36:44;;;;;;;3.85;1.40;;;;;;;;;;5028441;28;20037;-69
2022/10/24 02:39:11;;;;;;;5.57;1.80;;;;;;;;;;5034465;28;20083;-70
2022/10/24 02:41:39;;;;;;;5.65;1.38;;;;;;;;;;5045792;28;20033;-70
2022/10/24 02:44:06;;;;;;;6.57;1.75;;;;;;;;;;5047971;28;20060;-70
2022/10/24 02:46:33;;;;;;;1.38;0.95;;;;;;;;;;5048120;28;20022;-70
2022/10/24 02:49:00;;;;;;;3.88;1.13;;;;;;;;;;5047812;28;20037;-70
2022/10/24 02:51:29;;;;;;;2.13;1.05;;;;;;;;;;5047998;28;20025;-70
2022/10/24 02:53:56;;;;;;;3.78;0.95;;;;;;;;;;5048065;28;20040;-70
2022/10/24 02:56:21;;;;;;;4.03;1.48;;;;;;;;;;5048989;28;20044;-70
2022/10/24 02:58:47;;;;;;;3.90;1.13;;;;;;;;;;5066660;28;20033;-70
2022/10/24 03:01:12;;;;;;;3.47;1.30;;;;;;;;;;5068295;28;20115;-70
2022/10/24 03:03:37;;;;;;;6.10;1.10;;;;;;;;;;5067737;28;20025;-69
2022/10/24 03:06:03;;;;;;;5.28;1.20;;;;;;;;;;5051440;28;20406;-70
2022/10/24 03:08:29;;;;;;;6.32;1.33;;;;;;;;;;5047885;28;20033;-70
2022/10/24 03:10:54;;;;;;;5.03;1.00;;;;;;;;;;5047395;28;20029;-70
2022/10/24 03:13:19;;;;;;;3.90;0.80;;;;;;;;;;5046283;28;20159;-70
2022/10/24 03:15:45;;;;;;;5.30;1.10;;;;;;;;;;5047554;28;20028;-70
2022/10/24 03:18:10;;;;;;;4.65;1.00;;;;;;;;;;5047722;28;20021;-70
2022/10/24 03:20:35;;;;;;;4.63;1.08;;;;;;;;;;5047550;28;20323;-70
2022/10/24 03:23:01;;;;;;;4.72;1.08;;;;;;;;;;5045551;28;20078;-70
2022/10/24 03:25:26;;;;;;;3.03;0.93;;;;;;;;;;5047726;28;20766;-70
2022/10/24 03:27:51;;;;;;;7.18;1.02;;;;;;;;;;5046784;28;20083;-70
2022/10/24 03:30:17;;;;;;;7.53;1.13;;;;;;;;;;5047165;28;20483;-70
2022/10/24 03:32:42;;;;;;;6.03;1.02;;;;;;;;;;5047065;28;20037;-70
2022/10/24 03:35:08;;;;;;;2.92;1.13;;;;;;;;;;5047320;28;20032;-70
2022/10/24 03:37:33;;;;;;;7.15;1.38;;;;;;;;;;5047012;28;20029;-70
2022/10/24 03:39:58;;;;;;;5.03;1.08;;;;;;;;;;5046912;28;20051;-70
2022/10/24 03:42:24;;;;;;;3.58;1.50;;;;;;;;;;5047580;28;20017;-70
2022/10/24 03:44:49;;;;;;;5.95;1.17;;;;;;;;;;5044561;28;20130;-70
2022/10/24 03:47:14;;;;;;;5.15;1.40;;;;;;;;;;5046708;28;20584;-70
2022/10/24 03:49:40;;;;;;;4.20;1.35;;;;;;;;;;5045237;28;20024;-70
2022/10/24 03:52:05;;;;;;;5.65;1.65;;;;;;;;;;5045310;28;20135;-70
2022/10/24 03:54:30;;;;;;;7.25;1.45;;;;;;;;;;5047271;28;20070;-70
2022/10/24 03:56:56;;;;;;;4.18;1.27;;;;;;;;;;5042652;28;20515;-69
2022/10/24 03:59:21;;;;;;;7.82;1.85;;;;;;;;;;5039349;28;20100;-69
2022/10/24 04:01:47;;;;;;;5.78;1.52;;;;;;;;;;5046398;28;20053;-70
2022/10/24 04:04:12;;;;;;;5.72;1.25;;;;;;;;;;5046679;28;20506;-70
2022/10/24 04:06:38;;;;;;;5.82;1.38;;;;;;;;;;5035966;28;20059;-69
2022/10/24 04:09:04;;;;;;;11.43;1.40;;;;;;;;;;5045677;28;20108;-70
2022/10/24 04:11:29;;;;;;;3.30;1.08;;;;;;;;;;5044798;28;20175;-70
2022/10/24 04:13:54;;;;;;;6.32;1.30;;;;;;;;;;5045193;28;20464;-70
2022/10/24 04:16:20;;;;;;;2.58;1.10;;;;;;;;;;5046181;28;20580;-70
2022/10/24 04:18:45;;;;;;;5.47;1.30;;;;;;;;;;5046062;28;20025;-69
2022/10/24 04:21:11;;;;;;;3.20;1.00;;;;;;;;;;5046791;28;20021;-70
2022/10/24 04:23:39;;;;;;;5.75;1.15;;;;;;;;;;5039048;28;20036;-70
2022/10/24 04:26:08;;;;;;;4.68;0.82;;;;;;;;;;5028301;28;20033;-68
2022/10/24 04:28:34;;;;;;;6.05;1.25;;;;;;;;;;5025920;28;20044;-70
2022/10/24 04:30:59;;;;;;;2.88;0.80;;;;;;;;;;5026467;28;20112;-70
2022/10/24 04:33:24;;;;;;;10.02;2.55;;;;;;;;;;5041738;28;20030;-70
2022/10/24 04:35:51;;;;;;;6.47;1.15;;;;;;;;;;5040923;28;20574;-70
2022/10/24 04:38:17;;;;;;;3.55;1.00;;;;;;;;;;5026745;28;20041;-70
2022/10/24 04:40:48;;;;;;;6.80;1.45;;;;;;;;;;5044623;28;20526;-70
2022/10/24 04:43:13;;;;;;;4.40;1.23;;;;;;;;;;5045880;28;20032;-69
2022/10/24 04:45:39;;;;;;;3.17;1.10;;;;;;;;;;5046158;28;20021;-69
2022/10/24 04:48:04;;;;;;;3.85;1.35;;;;;;;;;;5045922;28;20025;-70
2022/10/24 04:50:29;;;;;;;6.68;0.95;;;;;;;;;;5046593;28;20025;-70
2022/10/24 04:52:55;;;;;;;6.00;1.00;;;;;;;;;;5045715;28;20457;-70
2022/10/24 04:55:20;;;;;;;5.82;1.27;;;;;;;;;;5054424;28;20032;-70
2022/10/24 04:57:45;;;;;;;6.13;1.00;;;;;;;;;;5064591;28;20020;-69
2022/10/24 05:00:11;;;;;;;4.82;1.02;;;;;;;;;;5067152;28;20020;-70
2022/10/24 05:02:36;;;;;;;8.45;1.17;;;;;;;;;;5066046;28;20509;-70
2022/10/24 05:05:02;;;;;;;3.78;1.40;;;;;;;;;;5066273;28;20090;-70
2022/10/24 05:07:27;;;;;;;6.85;1.80;;;;;;;;;;5052241;28;20409;-70
2022/10/24 05:09:53;;;;;;;3.45;1.27;;;;;;;;;;5045702;28;20036;-70
2022/10/24 05:12:18;;;;;;;7.22;1.52;;;;;;;;;;5046448;28;20531;-70
2022/10/24 05:14:45;;;;;;;10.55;1.38;;;;;;;;;;5042314;28;20044;-70
2022/10/24 05:17:12;;;;;;;10.05;1.30;;;;;;;;;;5044405;28;20029;-70
2022/10/24 05:19:37;;;;;;;9.98;1.55;;;;;;;;;;5044798;28;20525;-70
2022/10/24 05:22:03;;;;;;;5.15;1.13;;;;;;;;;;5049096;28;20032;-69
2022/10/24 05:24:28;;;;;;;6.22;1.42;;;;;;;;;;5049650;28;20067;-70
2022/10/24 05:26:54;;;;;;;8.10;1.42;;;;;;;;;;5040243;28;20753;-70
2022/10/24 05:29:19;;;;;;;5.38;1.17;;;;;;;;;;5027970;28;20084;-70
2022/10/24 05:31:45;;;;;;;7.72;2.25;;;;;;;;;;5042983;28;20527;-69
2022/10/24 05:34:10;;;;;;;5.57;1.20;;;;;;;;;;5035515;28;20569;-70
2022/10/24 05:36:35;;;;;;;3.35;0.85;;;;;;;;;;5027921;28;20678;-69
2022/10/24 05:39:01;;;;;;;8.15;1.20;;;;;;;;;;5034190;28;20017;-70
2022/10/24 05:41:26;;;;;;;7.95;1.10;;;;;;;;;;5048822;28;20036;-68
2022/10/24 05:43:51;;;;;;;10.38;1.23;;;;;;;;;;5045735;28;20045;-70
2022/10/24 05:46:17;;;;;;;8.52;1.40;;;;;;;;;;5049597;28;20536;-70
2022/10/24 05:48:42;;;;;;;8.40;1.38;;;;;;;;;;5048214;28;20509;-69
2022/10/24 05:51:07;;;;;;;5.70;1.08;;;;;;;;;;5047456;28;20024;-70
2022/10/24 05:53:33;;;;;;;8.70;1.48;;;;;;;;;;5048184;28;20083;-70
2022/10/24 05:55:58;;;;;;;7.43;1.48;;;;;;;;;;5035540;28;20034;-70
2022/10/24 05:58:23;;;;;;;11.70;1.83;;;;;;;;;;5027566;28;20029;-70
2022/10/24 06:00:50;;;;;;;9.27;1.30;;;;;;;;;;5045859;28;20036;-70
2022/10/24 06:03:16;;;;;;;4.65;1.30;;;;;;;;;;5045155;28;20017;-70
2022/10/24 06:05:41;;;;;;;6.18;1.13;;;;;;;;;;5047727;28;20103;-70
2022/10/24 06:08:07;;;;;;;8.57;2.10;;;;;;;;;;5045460;28;20029;-70
2022/10/24 06:10:33;;;;;;;7.82;1.27;;;;;;;;;;5047426;28;20032;-70
2022/10/24 06:12:59;;;;;;;7.70;1.30;;;;;;;;;;5048026;28;20421;-70
2022/10/24 06:15:24;;;;;;;6.45;1.25;;;;;;;;;;5044117;28;20021;-70
2022/10/24 06:17:50;;;;;;;10.57;1.30;;;;;;;;;;5048288;28;20437;-70
2022/10/24 06:20:15;;;;;;;9.77;1.98;;;;;;;;;;5048565;28;20068;-70
2022/10/24 06:22:43;;;;;;;8.80;1.30;;;;;;;;;;5046375;28;20024;-70
2022/10/24 06:25:10;;;;;;;7.07;1.33;;;;;;;;;;5047987;28;20631;-70
2022/10/24 06:27:35;;;;;;;7.35;1.83;;;;;;;;;;5047379;28;20125;-69
2022/10/24 06:30:00;;;;;;;7.57;1.67;;;;;;;;;;5047942;28;20040;-70
2022/10/24 06:32:26;;;;;;;7.90;1.75;;;;;;;;;;5047540;28;20455;-70
2022/10/24 06:34:51;;;;;;;8.85;1.33;;;;;;;;;;5047852;28;20050;-69
2022/10/24 06:37:16;;;;;;;7.13;1.40;;;;;;;;;;5041833;28;20049;-70
2022/10/24 06:39:42;;;;;;;11.18;1.38;;;;;;;;;;5036405;28;20037;-69
2022/10/24 06:42:07;;;;;;;7.95;1.40;;;;;;;;;;5040965;28;20029;-70
2022/10/24 06:44:32;;;;;;;6.43;1.20;;;;;;;;;;5047535;28;20057;-70
2022/10/24 06:46:58;;;;;;;5.80;1.23;;;;;;;;;;5035116;28;20041;-70
2022/10/24 06:49:23;;;;;;;8.77;1.33;;;;;;;;;;5033804;28;20026;-69
2022/10/24 06:51:49;;;;;;;7.55;1.35;;;;;;;;;;5037950;28;20079;-69
2022/10/24 06:54:14;;;;;;;8.43;1.35;;;;;;;;;;5052009;28;20477;-69
2022/10/24 06:56:40;;;;;;;7.43;1.20;;;;;;;;;;5046361;28;20563;-70
2022/10/24 06:59:12;;;;;;;5.90;1.10;;;;;;;;;;5042857;28;20064;-70
2022/10/24 07:01:38;;;;;;;4.85;1.23;;;;;;;;;;5053926;28;20037;-69
2022/10/24 07:04:04;;;;;;;10.75;1.40;;;;;;;;;;5046912;28;20037;-70
2022/10/24 07:06:30;;;;;;;5.72;1.10;;;;;;;;;;5046057;28;20037;-70
2022/10/24 07:08:58;;;;;;;8.07;1.20;;;;;;;;;;5038761;28;20045;-70
2022/10/24 07:11:24;;;;;;;9.90;1.58;;;;;;;;;;5027206;28;20052;-70
2022/10/24 07:13:49;;;;;;;11.68;1.40;;;;;;;;;;5027337;28;20046;-70
2022/10/24 07:16:15;;;;;;;5.65;0.98;;;;;;;;;;5041453;28;20038;-70
2022/10/24 07:18:42;;;;;;;4.95;1.25;;;;;;;;;;5034393;28;20619;-69
2022/10/24 07:21:11;;;;;;;8.55;1.30;;;;;;;;;;5039932;28;20052;-69
2022/10/24 07:23:37;;;;;;;7.93;1.40;;;;;;;;;;5045208;28;20037;-70
2022/10/24 07:26:04;;;;;;;7.13;1.23;;;;;;;;;;5038892;28;20528;-69
2022/10/24 07:28:30;;;;;;;8.93;1.83;;;;;;;;;;5034664;28;20048;-70
2022/10/24 07:30:55;;;;;;;6.38;1.40;;;;;;;;;;5041141;28;20615;-69
2022/10/24 07:33:21;;;;;;;5.60;1.23;;;;;;;;;;5046216;28;20039;-70
2022/10/24 07:35:46;;;;;;;7.10;1.35;;;;;;;;;;5042260;28;20126;-69
2022/10/24 07:38:11;;;;;;;7.57;1.92;;;;;;;;;;5035418;28;20033;-69
2022/10/24 07:40:36;;;;;;;7.78;1.33;;;;;;;;;;5038665;28;20155;-69
2022/10/24 07:43:02;;;;;;;6.38;1.38;;;;;;;;;;5037118;28;20064;-69
2022/10/24 07:45:28;;;;;;;7.90;1.63;;;;;;;;;;5063794;28;20414;-70
2022/10/24 07:47:54;;;;;;;7.35;1.33;;;;;;;;;;5059746;28;20127;-69
2022/10/24 07:50:19;;;;;;;6.05;1.40;;;;;;;;;;5046738;28;20167;-70
2022/10/24 07:52:45;;;;;;;7.85;1.52;;;;;;;;;;5037492;28;20053;-70
2022/10/24 07:55:10;;;;;;;9.23;1.45;;;;;;;;;;5046592;28;20029;-70
2022/10/24 07:57:35;;;;;;;7.28;1.48;;;;;;;;;;5047109;28;20451;-69
2022/10/24 08:00:01;;;;;;;9.32;1.55;;;;;;;;;;5046970;28;20024;-69
2022/10/24 08:02:26;;;;;;;9.90;1.52;;;;;;;;;;5024735;28;20040;-70
2022/10/24 08:04:51;;;;;;;11.40;1.30;;;;;;;;;;5024355;28;20038;-70
2022/10/24 08:07:17;;;;;;;6.90;1.13;;;;;;;;;;5025489;28;20026;-69
2022/10/24 08:09:45;;;;;;;7.95;1.17;;;;;;;;;;5025528;28;20072;-69
2022/10/24 08:12:11;;;;;;;14.35;1.40;;;;;;;;;;5035775;28;20410;-70
2022/10/24 08:14:38;;;;;;;5.65;1.15;;;;;;;;;;5045699;28;20045;-70
2022/10/24 08:17:04;;;;;;;5.82;1.30;;;;;;;;;;5045845;28;20041;-70
2022/10/24 08:19:30;;;;;;;6.88;1.60;;;;;;;;;;5044838;28;20525;-70
2022/10/24 08:21:56;;;;;;;12.18;1.77;;;;;;;;;;5045368;28;20029;-68
2022/10/24 08:24:21;;;;;;;2.67;1.27;;;;;;;;;;5045574;28;20450;-67
2022/10/24 08:26:47;;;;;;;5.35;1.27;;;;;;;;;;5041796;28;20714;-68
2022/10/24 08:29:14;;;;;;;10.25;1.38;;;;;;;;;;5036838;28;20060;-68
2022/10/24 08:31:39;;;;;;;9.20;1.83;;;;;;;;;;5037540;28;20053;-67
2022/10/24 08:34:05;;;;;;;10.30;1.52;;;;;;;;;;5043205;28;20060;-67
2022/10/24 08:36:33;;;;;;;7.68;1.50;;;;;;;;;;5046133;28;20036;-67
2022/10/24 08:38:59;;;;;;;5.38;1.48;;;;;;;;;;5044949;28;20030;-67
2022/10/24 08:41:42;;;;;;;11.50;1.48;;;;;;;;;;5044675;28;20037;-67
2022/10/24 08:44:20;;;;;;;7.03;1.52;;;;;;;;;;5037538;28;20119;-67
2022/10/24 08:47:04;;;;;;;12.88;1.70;;;;;;;;;;5042789;28;20045;-67
2022/10/24 08:49:48;;;;;;;;;;;;;;;;;;5037004;28;20426;-67
2022/10/24 08:52:36;;;;;;;8.50;1.73;;;;;;;;;;5046385;28;19916;-67
2022/10/24 08:55:12;;;;;;;8.75;1.10;;;;;;;;;;5063328;28;20739;-67
2022/10/24 08:57:40;;;;;;;10.38;1.80;;;;;;;;;;5051323;28;20021;-67
2022/10/24 09:00:21;;;;;;;7.28;1.60;;;;;;;;;;5051941;28;20024;-67
2022/10/24 09:02:54;;;;;;;9.73;1.50;;;;;;;;;;5067115;28;20536;-67
2022/10/24 09:05:23;;;;;;;8.90;1.20;;;;;;;;;;5060752;28;20035;-67
2022/10/24 09:07:55;;;;;;;10.00;1.27;;;;;;;;;;5046634;28;20037;-67
2022/10/24 09:10:40;;;;;;;10.38;1.42;;;;;;;;;;5044398;28;20033;-67
2022/10/24 09:13:12;;;;;;;7.40;1.40;;;;;;;;;;5049067;28;20041;-67
2022/10/24 09:15:40;;;;;;;5.80;1.35;;;;;;;;;;5045466;28;20072;-67
2022/10/24 09:18:33;;;;;;;8.57;1.20;;;;;;;;;;5047342;28;20021;-67
2022/10/24 09:21:00;;;;;;;7.80;1.73;;;;;;;;;;5049037;28;20033;-67
2022/10/24 09:23:26;;;;;;;10.38;1.67;;;;;;;;;;5043340;28;20115;-67
2022/10/24 09:25:55;;;;;;;4.95;1.20;;;;;;;;;;5035875;28;20124;-67
2022/10/24 09:28:21;;;;;;;10.60;1.45;;;;;;;;;;5027480;28;20083;-67
2022/10/24 09:30:47;;;;;;;7.00;1.00;;;;;;;;;;5030897;28;20032;-67
2022/10/24 09:33:27;;;;;;;6.40;1.00;;;;;;;;;;5044939;28;20036;-68
2022/10/24 09:35:56;;;;;;;7.55;2.17;;;;;;;;;;5039027;28;20032;-67
2022/10/24 09:38:21;;;;;;;10.35;1.50;;;;;;;;;;5048420;28;20453;-68
2022/10/24 09:40:52;;;;;;;8.40;1.50;;;;;;;;;;5048487;28;20041;-67
2022/10/24 09:43:21;;;;;;;5.50;1.35;;;;;;;;;;5065266;28;20082;-65
2022/10/24 09:46:02;;;;;;;10.60;1.75;;;;;;;;;;5048412;28;20029;-65
2022/10/24 09:48:34;;;;;;;4.65;1.15;;;;;;;;;;5039195;28;20032;-66
2022/10/24 09:51:01;;;;;;;6.60;1.42;;;;;;;;;;5042258;28;20075;-67
2022/10/24 09:53:32;;;;;;;3.72;1.10;;;;;;;;;;5045580;28;20514;-67
2022/10/24 09:56:10;;;;;;;5.57;1.40;;;;;;;;;;5040418;28;20040;-67
2022/10/24 09:58:36;;;;;;;7.45;1.33;;;;;;;;;;5034743;28;20055;-67
2022/10/24 10:01:03;;;;;;;9.35;1.67;;;;;;;;;;5054623;28;20037;-67
2022/10/24 10:03:29;;;;;;;7.80;1.30;;;;;;;;;;5048889;28;20094;-67
2022/10/24 10:06:17;;;;;;;7.97;1.48;;;;;;;;;;5042784;28;20091;-67
2022/10/24 10:08:48;;;;;;;8.45;1.35;;;;;;;;;;5041268;28;20041;-67
2022/10/24 10:11:14;;;;;;;8.90;1.73;;;;;;;;;;5036721;28;20441;-67
2022/10/24 10:13:52;;;;;;;7.15;1.65;;;;;;;;;;5047615;28;20033;-67
2022/10/24 10:16:24;;;;;;;6.10;1.83;;;;;;;;;;5038144;28;20064;-67
2022/10/24 10:18:51;;;;;;;8.98;1.52;;;;;;;;;;5045871;28;20021;-67
2022/10/24 10:21:19;;;;;;;7.78;1.25;;;;;;;;;;5043242;28;20686;-65
2022/10/24 10:23:53;;;;;;;4.32;0.85;;;;;;;;;;5046241;28;20047;-66
2022/10/24 10:26:44;;;;;;;7.15;1.80;;;;;;;;;;5030608;28;20033;-67
2022/10/24 10:29:15;;;;;;;4.75;1.20;;;;;;;;;;5039504;28;20037;-66
2022/10/24 10:31:49;;;;;;;5.93;1.88;;;;;;;;;;5035526;28;20037;-67
2022/10/24 10:34:22;;;;;;;9.25;1.65;;;;;;;;;;5044792;28;20040;-67
2022/10/24 10:37:23;;;;;;;6.68;1.20;;;;;;;;;;5040017;28;20494;-66
2022/10/24 10:40:13;;;;;;;3.30;0.90;;;;;;;;;;5037885;28;20021;-67
2022/10/24 10:42:42;;;;;;;7.18;1.50;;;;;;;;;;5045638;28;20733;-67
2022/10/24 10:45:31;;;;;;;9.82;1.45;;;;;;;;;;5035770;28;20041;-67
2022/10/24 10:48:06;;;;;;;3.45;1.00;;;;;;;;;;5031690;28;20052;-67
2022/10/24 10:50:40;;;;;;;8.02;1.10;;;;;;;;;;5046677;28;20033;-67
2022/10/24 10:53:42;;;;;;;6.13;1.30;;;;;;;;;;5049316;28;20099;-67
2022/10/24 10:56:13;;;;;;;5.72;1.30;;;;;;;;;;5014998;28;20111;-67
2022/10/24 10:58:55;;;;;;;6.10;1.27;;;;;;;;;;5028004;28;20036;-67
2022/10/24 11:01:47;;;;;;;8.13;1.42;;;;;;;;;;5027282;28;20121;-68
2022/10/24 11:04:22;;;;;;;3.83;0.90;;;;;;;;;;5027520;28;20029;-68
2022/10/24 11:07:19;;;;;;;7.57;1.42;;;;;;;;;;5028009;28;20021;-67
2022/10/24 11:09:47;;;;;;;4.07;1.08;;;;;;;;;;5026011;28;20033;-67
2022/10/24 11:12:20;;;;;;;4.38;1.17;;;;;;;;;;5041589;28;20025;-67
2022/10/24 11:14:49;;;;;;;5.82;1.15;;;;;;;;;;5047888;28;20033;-68
2022/10/24 11:17:22;;;;;;;5.72;1.08;;;;;;;;;;5046445;28;20866;-68
2022/10/24 11:20:06;;;;;;;4.28;1.00;;;;;;;;;;5046536;28;20115;-68
2022/10/24 11:22:46;;;;;;;5.75;1.13;;;;;;;;;;5047959;28;20037;-68
2022/10/24 11:25:21;;;;;;;4.88;1.25;;;;;;;;;;5043886;28;20121;-68
2022/10/24 11:27:59;;;;;;;4.90;1.05;;;;;;;;;;5045446;28;20052;-68
2022/10/24 11:30:46;;;;;;;6.57;1.35;;;;;;;;;;5047983;28;20017;-68
2022/10/24 11:33:24;;;;;;;3.03;1.00;;;;;;;;;;5031480;28;20034;-68
2022/10/24 11:36:17;;;;;;;3.05;1.08;;;;;;;;;;5027545;28;20107;-68
2022/10/24 11:38:48;;;;;;;3.10;0.75;;;;;;;;;;5027088;28;20038;-68
2022/10/24 11:42:02;;;;;;;6.03;1.17;;;;;;;;;;5047425;28;20514;-68
2022/10/24 11:44:48;;;;;;;4.18;1.20;;;;;;;;;;5044264;28;20600;-66
2022/10/24 11:47:23;;;;;;;3.88;1.02;;;;;;;;;;5046844;28;20025;-68
2022/10/24 11:50:10;;;;;;;7.20;2.10;;;;;;;;;;5041653;28;20037;-68
2022/10/24 11:52:45;;;;;;;4.15;1.13;;;;;;;;;;5043453;28;20585;-68
2022/10/24 11:55:19;;;;;;;4.30;1.08;;;;;;;;;;5045122;28;20044;-68
2022/10/24 11:57:47;;;;;;;3.70;1.40;;;;;;;;;;5044884;28;20043;-68
2022/10/24 12:00:23;;;;;;;9.63;1.48;;;;;;;;;;5046640;28;20082;-68
2022/10/24 12:02:54;;;;;;;8.10;2.15;;;;;;;;;;5044021;28;20044;-68
2022/10/24 12:05:46;;;;;;;4.35;1.00;;;;;;;;;;5039107;28;20045;-68
2022/10/24 12:08:36;;;;;;;6.15;1.33;;;;;;;;;;5044004;28;20502;-68
2022/10/24 12:11:15;;;;;;;4.75;1.23;;;;;;;;;;5045299;28;20128;-68
2022/10/24 12:14:02;;;;;;;8.65;1.80;;;;;;;;;;5044526;28;20040;-68
2022/10/24 12:16:31;;;;;;;5.75;1.40;;;;;;;;;;5045171;28;20124;-68
2022/10/24 12:19:08;;;;;;;23.75;4.05;;;;;;;;;;5044873;28;20045;-72
2022/10/24 12:21:38;;;;;;;3.45;1.02;;;;;;;;;;5044217;28;20021;-74
2022/10/24 12:24:05;;;;;;;7.90;1.35;;;;;;;;;;5044686;28;20379;-72
2022/10/24 12:26:34;;;;;;;4.03;0.90;;;;;;;;;;5045605;28;20087;-72
2022/10/24 12:29:05;;;;;;;5.53;1.20;;;;;;;;;;5045435;28;20071;-72
2022/10/24 12:31:36;;;;;;;4.78;1.40;;;;;;;;;;5045182;28;20028;-71
2022/10/24 12:34:14;;;;;;;7.97;1.60;;;;;;;;;;5044659;28;20116;-72
2022/10/24 12:37:04;;;;;;;8.07;1.95;;;;;;;;;;5044936;28;20036;-71
2022/10/24 12:39:38;;;;;;;5.03;1.45;;;;;;;;;;5050582;28;20546;-71
2022/10/24 12:42:11;;;;;;;11.52;1.75;;;;;;;;;;5066174;28;20044;-71
2022/10/24 12:44:40;;;;;;;13.85;1.50;;;;;;;;;;5064055;28;20056;-71
2022/10/24 12:47:23;;;;;;;4.85;1.35;;;;;;;;;;5066200;28;20041;-72
2022/10/24 12:49:49;;;;;;;;;;;;;;;;;;5038945;28;20033;-70
2022/10/24 12:52:29;;;;;;;9.87;1.90;;;;;;;;;;5029278;28;19912;-71
2022/10/24 12:54:55;;;;;;;6.38;1.30;;;;;;;;;;5035540;28;21208;-70
2022/10/24 12:57:23;;;;;;;6.20;1.58;;;;;;;;;;5046210;28;20030;-70
2022/10/24 12:59:51;;;;;;;4.88;1.50;;;;;;;;;;5044975;28;20576;-70
2022/10/24 13:02:19;;;;;;;9.40;1.88;;;;;;;;;;5045294;28;20040;-70
2022/10/24 13:04:51;;;;;;;10.02;1.33;;;;;;;;;;5031020;28;20136;-70
2022/10/24 13:07:28;;;;;;;10.10;1.90;;;;;;;;;;5037592;28;20037;-69
2022/10/24 13:10:05;;;;;;;6.00;1.38;;;;;;;;;;5045782;28;20021;-70
2022/10/24 13:13:06;;;;;;;6.93;1.48;;;;;;;;;;5046251;28;20384;-69
2022/10/24 13:15:56;;;;;;;11.82;1.90;;;;;;;;;;5021837;28;20083;-69
2022/10/24 13:19:03;;;;;;;7.93;1.20;;;;;;;;;;5027478;28;20025;-69
2022/10/24 13:21:32;;;;;;;8.13;1.60;;;;;;;;;;5025705;28;20522;-69
2022/10/24 13:24:15;;;;;;;8.77;1.77;;;;;;;;;;5025771;28;20029;-69
2022/10/24 13:26:42;;;;;;;;;;;;;;;;;;5025286;28;20034;-69
2022/10/24 13:29:13;;;;;;;7.80;1.65;;;;;;;;;;5025891;28;19913;-69
2022/10/24 13:31:42;;;;;;;4.88;1.42;;;;;;;;;;5025414;28;20638;-69
2022/10/24 13:34:24;;;;;;;8.05;1.92;;;;;;;;;;5023570;28;20038;-69
2022/10/24 13:37:13;;;;;;;7.15;1.50;;;;;;;;;;5024822;28;20100;-69
2022/10/24 13:39:52;;;;;;;6.72;1.25;;;;;;;;;;5034545;28;20028;-68
2022/10/24 13:42:21;;;;;;;6.07;1.30;;;;;;;;;;5046851;28;20029;-69
2022/10/24 13:44:50;;;;;;;5.60;1.25;;;;;;;;;;5048732;28;20049;-69
2022/10/24 13:47:27;;;;;;;9.10;1.40;;;;;;;;;;5047990;28;20033;-69
2022/10/24 13:50:13;;;;;;;8.32;1.10;;;;;;;;;;5036557;28;20038;-68
2022/10/24 13:52:41;;;;;;;7.63;1.50;;;;;;;;;;5067588;28;20032;-69
2022/10/24 13:55:09;;;;;;;9.25;1.50;;;;;;;;;;5067217;28;20040;-69
2022/10/24 13:57:53;;;;;;;4.78;1.20;;;;;;;;;;5045920;28;20033;-67
2022/10/24 14:00:26;;;;;;;3.85;1.27;;;;;;;;;;5048008;28;20021;-69
2022/10/24 14:02:54;;;;;;;7.45;1.10;;;;;;;;;;5048758;28;20039;-69
2022/10/24 14:05:28;;;;;;;8.50;1.08;;;;;;;;;;5047334;28;20103;-69
2022/10/24 14:07:53;;;;;;;8.25;1.58;;;;;;;;;;5044614;28;20026;-69
2022/10/24 14:10:20;;;;;;;4.72;1.40;;;;;;;;;;5061279;28;20786;-68
2022/10/24 14:12:46;;;;;;;3.45;1.40;;;;;;;;;;5068209;28;20031;-69
2022/10/24 14:15:18;;;;;;;5.88;1.42;;;;;;;;;;5069157;28;20028;-69
2022/10/24 14:17:53;;;;;;;4.93;1.02;;;;;;;;;;5051255;28;20680;-71
2022/10/24 14:20:22;;;;;;;4.95;1.20;;;;;;;;;;5047886;28;20037;-71
2022/10/24 14:22:47;;;;;;;4.65;0.95;;;;;;;;;;5047993;28;20064;-71
2022/10/24 14:25:35;;;;;;;4.70;0.98;;;;;;;;;;5048320;28;20033;-70
2022/10/24 14:28:08;;;;;;;6.30;1.00;;;;;;;;;;5047178;28;20037;-70
2022/10/24 14:30:34;;;;;;;8.32;0.90;;;;;;;;;;5047562;28;20025;-70
2022/10/24 14:33:21;;;;;;;4.57;1.10;;;;;;;;;;5046417;28;20066;-70
2022/10/24 14:35:48;;;;;;;5.10;0.95;;;;;;;;;;5042034;28;20037;-70
2022/10/24 14:38:15;;;;;;;7.78;1.60;;;;;;;;;;5043982;28;20525;-70
2022/10/24 14:40:42;;;;;;;4.50;0.93;;;;;;;;;;5038953;28;20029;-70
2022/10/24 14:43:14;;;;;;;3.42;1.15;;;;;;;;;;5046409;28;20036;-70
2022/10/24 14:45:39;;;;;;;6.45;1.30;;;;;;;;;;5047605;28;20048;-69
2022/10/24 14:48:22;;;;;;;7.53;1.65;;;;;;;;;;5045397;28;20021;-69
2022/10/24 14:50:48;;;;;;;8.50;1.70;;;;;;;;;;5047145;28;20033;-70
2022/10/24 14:53:26;;;;;;;7.47;1.70;;;;;;;;;;5045495;28;20033;-69
2022/10/24 14:55:56;;;;;;;5.63;1.88;;;;;;;;;;5047319;28;20844;-69
2022/10/24 14:58:24;;;;;;;11.98;1.95;;;;;;;;;;5046912;28;20744;-69
2022/10/24 15:00:50;;;;;;;9.00;2.15;;;;;;;;;;5047494;28;20056;-69
2022/10/24 15:03:16;;;;;;;5.45;1.77;;;;;;;;;;5047915;28;20554;-69
2022/10/24 15:05:56;;;;;;;9.45;1.92;;;;;;;;;;5039531;28;20112;-69